Terminal Aerodrome Forecast
Issued by NWS Cleveland, OH

Home | Current Version | Previous Version | Graphics & Text | Print | Product List | Glossary On
Versions: 1 2 3 4 5 6 7 8 9 10 11 12 13 14 15 16 17 18 19 20
000
FTUS41 KCLE 222000 AAA
TAFTOL
TAF AMD
KTOL 222055Z 2221/2318 27005KT P6SM BKN035
      TEMPO 2221/2224 BKN015
     FM230000 25005KT P6SM BKN050
     FM230400 24005KT 4SM BR SCT050
     FM231400 24010KT P6SM BKN050=

USA.gov is the U.S. government's official web portal to all federal, state and local government web resources and services.